sensor_id;sensor_type;location;lat;lon;timestamp;P1;durP1;ratioP1;P2;durP2;ratioP2
77591;SDS011;66891;46.884;17.436;2023-04-06T00:02:00;8.40;;;2.00;;
77591;SDS011;66891;46.884;17.436;2023-04-06T00:04:28;8.95;;;2.00;;
77591;SDS011;66891;46.884;17.436;2023-04-06T00:06:55;9.15;;;2.22;;
77591;SDS011;66891;46.884;17.436;2023-04-06T00:09:23;10.73;;;2.65;;
77591;SDS011;66891;46.884;17.436;2023-04-06T00:11:50;11.05;;;2.40;;
77591;SDS011;66891;46.884;17.436;2023-04-06T00:14:18;11.38;;;3.08;;
77591;SDS011;66891;46.884;17.436;2023-04-06T00:16:45;8.55;;;2.20;;
77591;SDS011;66891;46.884;17.436;2023-04-06T00:19:12;8.88;;;1.65;;
77591;SDS011;66891;46.884;17.436;2023-04-06T00:21:40;17.20;;;5.97;;
77591;SDS011;66891;46.884;17.436;2023-04-06T00:24:08;29.05;;;9.15;;
77591;SDS011;66891;46.884;17.436;2023-04-06T00:26:35;34.47;;;11.60;;
77591;SDS011;66891;46.884;17.436;2023-04-06T00:29:02;41.88;;;13.73;;
77591;SDS011;66891;46.884;17.436;2023-04-06T00:31:29;39.85;;;14.68;;
77591;SDS011;66891;46.884;17.436;2023-04-06T00:33:57;56.17;;;18.10;;
77591;SDS011;66891;46.884;17.436;2023-04-06T00:36:24;89.57;;;28.33;;
77591;SDS011;66891;46.884;17.436;2023-04-06T00:38:53;63.53;;;22.33;;
77591;SDS011;66891;46.884;17.436;2023-04-06T00:41:20;40.40;;;15.45;;
77591;SDS011;66891;46.884;17.436;2023-04-06T00:43:47;37.77;;;13.60;;
77591;SDS011;66891;46.884;17.436;2023-04-06T00:46:14;31.25;;;12.15;;
77591;SDS011;66891;46.884;17.436;2023-04-06T00:48:42;25.80;;;10.13;;
77591;SDS011;66891;46.884;17.436;2023-04-06T00:51:09;20.23;;;8.13;;
77591;SDS011;66891;46.884;17.436;2023-04-06T00:53:36;19.70;;;6.13;;
77591;SDS011;66891;46.884;17.436;2023-04-06T00:56:04;14.07;;;5.50;;
77591;SDS011;66891;46.884;17.436;2023-04-06T00:58:32;13.43;;;4.15;;
77591;SDS011;66891;46.884;17.436;2023-04-06T01:00:59;9.75;;;3.35;;
77591;SDS011;66891;46.884;17.436;2023-04-06T01:03:26;9.02;;;2.33;;
77591;SDS011;66891;46.884;17.436;2023-04-06T01:05:53;10.65;;;2.47;;
77591;SDS011;66891;46.884;17.436;2023-04-06T01:08:25;11.02;;;3.60;;
77591;SDS011;66891;46.884;17.436;2023-04-06T01:10:52;10.45;;;3.30;;
77591;SDS011;66891;46.884;17.436;2023-04-06T01:13:20;10.93;;;3.70;;
77591;SDS011;66891;46.884;17.436;2023-04-06T01:15:47;9.98;;;2.92;;
77591;SDS011;66891;46.884;17.436;2023-04-06T01:18:15;8.48;;;2.25;;
77591;SDS011;66891;46.884;17.436;2023-04-06T01:20:42;10.73;;;2.63;;
77591;SDS011;66891;46.884;17.436;2023-04-06T01:23:10;9.90;;;2.75;;
77591;SDS011;66891;46.884;17.436;2023-04-06T01:25:37;8.65;;;2.28;;
77591;SDS011;66891;46.884;17.436;2023-04-06T01:28:05;10.50;;;3.00;;
77591;SDS011;66891;46.884;17.436;2023-04-06T01:30:32;10.20;;;2.63;;
77591;SDS011;66891;46.884;17.436;2023-04-06T01:32:59;10.73;;;2.80;;
77591;SDS011;66891;46.884;17.436;2023-04-06T01:35:27;8.77;;;2.58;;
77591;SDS011;66891;46.884;17.436;2023-04-06T01:37:54;9.40;;;2.78;;
77591;SDS011;66891;46.884;17.436;2023-04-06T01:40:23;11.23;;;2.65;;
77591;SDS011;66891;46.884;17.436;2023-04-06T01:42:50;9.23;;;2.08;;
77591;SDS011;66891;46.884;17.436;2023-04-06T01:45:17;8.68;;;2.53;;
77591;SDS011;66891;46.884;17.436;2023-04-06T01:47:44;10.98;;;2.45;;
77591;SDS011;66891;46.884;17.436;2023-04-06T01:50:12;7.65;;;2.35;;
77591;SDS011;66891;46.884;17.436;2023-04-06T01:52:39;10.02;;;2.80;;
77591;SDS011;66891;46.884;17.436;2023-04-06T01:55:06;9.65;;;2.78;;
77591;SDS011;66891;46.884;17.436;2023-04-06T01:57:35;8.52;;;1.92;;
77591;SDS011;66891;46.884;17.436;2023-04-06T02:00:02;7.90;;;1.77;;
77591;SDS011;66891;46.884;17.436;2023-04-06T02:02:29;8.35;;;2.25;;
77591;SDS011;66891;46.884;17.436;2023-04-06T02:04:56;9.25;;;2.28;;
77591;SDS011;66891;46.884;17.436;2023-04-06T02:07:23;9.02;;;2.05;;
77591;SDS011;66891;46.884;17.436;2023-04-06T02:09:53;10.55;;;2.33;;
77591;SDS011;66891;46.884;17.436;2023-04-06T02:12:20;9.90;;;2.65;;
77591;SDS011;66891;46.884;17.436;2023-04-06T02:14:49;9.73;;;2.65;;
77591;SDS011;66891;46.884;17.436;2023-04-06T02:17:16;9.57;;;2.03;;
77591;SDS011;66891;46.884;17.436;2023-04-06T02:19:43;9.13;;;2.33;;
77591;SDS011;66891;46.884;17.436;2023-04-06T02:22:10;8.33;;;1.87;;
77591;SDS011;66891;46.884;17.436;2023-04-06T02:24:37;7.63;;;0.93;;
77591;SDS011;66891;46.884;17.436;2023-04-06T02:27:04;8.13;;;1.70;;
77591;SDS011;66891;46.884;17.436;2023-04-06T02:29:31;9.52;;;1.80;;
77591;SDS011;66891;46.884;17.436;2023-04-06T02:32:00;10.10;;;1.85;;
77591;SDS011;66891;46.884;17.436;2023-04-06T02:34:27;9.40;;;2.20;;
77591;SDS011;66891;46.884;17.436;2023-04-06T02:36:56;9.32;;;2.00;;
77591;SDS011;66891;46.884;17.436;2023-04-06T02:39:23;9.60;;;2.42;;
77591;SDS011;66891;46.884;17.436;2023-04-06T02:41:50;9.32;;;2.03;;
77591;SDS011;66891;46.884;17.436;2023-04-06T02:44:17;7.30;;;1.42;;
77591;SDS011;66891;46.884;17.436;2023-04-06T02:46:44;7.63;;;1.17;;
77591;SDS011;66891;46.884;17.436;2023-04-06T02:49:12;9.38;;;2.15;;
77591;SDS011;66891;46.884;17.436;2023-04-06T02:51:39;9.13;;;2.10;;
77591;SDS011;66891;46.884;17.436;2023-04-06T02:54:06;9.57;;;2.25;;
77591;SDS011;66891;46.884;17.436;2023-04-06T02:56:33;9.77;;;1.85;;
77591;SDS011;66891;46.884;17.436;2023-04-06T02:59:01;8.23;;;2.13;;
77591;SDS011;66891;46.884;17.436;2023-04-06T03:01:28;9.20;;;1.88;;
77591;SDS011;66891;46.884;17.436;2023-04-06T03:03:55;9.85;;;1.83;;
77591;SDS011;66891;46.884;17.436;2023-04-06T03:06:23;6.50;;;1.25;;
77591;SDS011;66891;46.884;17.436;2023-04-06T03:08:51;9.65;;;2.35;;
77591;SDS011;66891;46.884;17.436;2023-04-06T03:11:18;10.43;;;2.50;;
77591;SDS011;66891;46.884;17.436;2023-04-06T03:13:45;11.30;;;2.10;;
77591;SDS011;66891;46.884;17.436;2023-04-06T03:16:13;10.77;;;2.25;;
77591;SDS011;66891;46.884;17.436;2023-04-06T03:18:40;9.93;;;1.95;;
77591;SDS011;66891;46.884;17.436;2023-04-06T03:21:07;8.07;;;2.30;;
77591;SDS011;66891;46.884;17.436;2023-04-06T03:23:38;7.50;;;2.00;;
77591;SDS011;66891;46.884;17.436;2023-04-06T03:26:05;8.50;;;1.80;;
77591;SDS011;66891;46.884;17.436;2023-04-06T03:28:32;9.63;;;1.80;;
77591;SDS011;66891;46.884;17.436;2023-04-06T03:30:59;8.88;;;1.80;;
77591;SDS011;66891;46.884;17.436;2023-04-06T03:33:26;9.73;;;2.80;;
77591;SDS011;66891;46.884;17.436;2023-04-06T03:35:53;9.93;;;2.03;;
77591;SDS011;66891;46.884;17.436;2023-04-06T03:38:21;9.00;;;2.60;;
77591;SDS011;66891;46.884;17.436;2023-04-06T03:40:49;9.07;;;2.40;;
77591;SDS011;66891;46.884;17.436;2023-04-06T03:43:17;8.95;;;2.03;;
77591;SDS011;66891;46.884;17.436;2023-04-06T03:45:44;9.88;;;2.40;;
77591;SDS011;66891;46.884;17.436;2023-04-06T03:48:11;9.90;;;2.97;;
77591;SDS011;66891;46.884;17.436;2023-04-06T03:50:38;8.43;;;3.00;;
77591;SDS011;66891;46.884;17.436;2023-04-06T03:53:05;10.75;;;3.30;;
77591;SDS011;66891;46.884;17.436;2023-04-06T03:55:32;16.08;;;6.30;;
77591;SDS011;66891;46.884;17.436;2023-04-06T03:58:01;15.93;;;6.85;;
77591;SDS011;66891;46.884;17.436;2023-04-06T04:00:29;14.97;;;6.17;;
77591;SDS011;66891;46.884;17.436;2023-04-06T04:02:56;15.40;;;5.97;;
77591;SDS011;66891;46.884;17.436;2023-04-06T04:05:23;16.80;;;5.97;;
77591;SDS011;66891;46.884;17.436;2023-04-06T04:07:52;13.40;;;4.43;;
77591;SDS011;66891;46.884;17.436;2023-04-06T04:10:20;19.58;;;5.47;;
77591;SDS011;66891;46.884;17.436;2023-04-06T04:12:47;25.60;;;8.70;;
77591;SDS011;66891;46.884;17.436;2023-04-06T04:15:15;22.15;;;6.13;;
77591;SDS011;66891;46.884;17.436;2023-04-06T04:17:42;63.45;;;23.33;;
77591;SDS011;66891;46.884;17.436;2023-04-06T04:20:13;54.45;;;20.42;;
77591;SDS011;66891;46.884;17.436;2023-04-06T04:22:41;42.80;;;14.45;;
77591;SDS011;66891;46.884;17.436;2023-04-06T04:25:08;42.58;;;13.85;;
77591;SDS011;66891;46.884;17.436;2023-04-06T04:27:35;30.88;;;10.90;;
77591;SDS011;66891;46.884;17.436;2023-04-06T04:30:03;23.75;;;8.65;;
77591;SDS011;66891;46.884;17.436;2023-04-06T04:32:34;24.85;;;9.25;;
77591;SDS011;66891;46.884;17.436;2023-04-06T04:35:01;18.98;;;8.25;;
77591;SDS011;66891;46.884;17.436;2023-04-06T04:37:28;61.90;;;20.40;;
77591;SDS011;66891;46.884;17.436;2023-04-06T04:39:55;104.13;;;34.45;;
77591;SDS011;66891;46.884;17.436;2023-04-06T04:42:22;59.15;;;23.38;;
77591;SDS011;66891;46.884;17.436;2023-04-06T04:44:49;58.72;;;22.15;;
77591;SDS011;66891;46.884;17.436;2023-04-06T04:47:16;37.97;;;14.65;;
77591;SDS011;66891;46.884;17.436;2023-04-06T04:49:45;54.70;;;20.23;;
77591;SDS011;66891;46.884;17.436;2023-04-06T04:52:12;33.08;;;15.02;;
77591;SDS011;66891;46.884;17.436;2023-04-06T04:54:44;56.80;;;28.00;;
77591;SDS011;66891;46.884;17.436;2023-04-06T04:57:11;33.13;;;14.05;;
77591;SDS011;66891;46.884;17.436;2023-04-06T04:59:38;24.35;;;8.38;;
77591;SDS011;66891;46.884;17.436;2023-04-06T05:02:05;23.90;;;10.38;;
77591;SDS011;66891;46.884;17.436;2023-04-06T05:04:32;34.08;;;13.57;;
77591;SDS011;66891;46.884;17.436;2023-04-06T05:07:04;36.05;;;14.25;;
77591;SDS011;66891;46.884;17.436;2023-04-06T05:09:31;31.27;;;9.85;;
77591;SDS011;66891;46.884;17.436;2023-04-06T05:11:58;22.88;;;8.32;;
77591;SDS011;66891;46.884;17.436;2023-04-06T05:14:25;17.57;;;6.47;;
77591;SDS011;66891;46.884;17.436;2023-04-06T05:16:53;12.88;;;4.78;;
77591;SDS011;66891;46.884;17.436;2023-04-06T05:19:20;30.60;;;12.60;;
77591;SDS011;66891;46.884;17.436;2023-04-06T05:21:47;345.92;;;98.20;;
77591;SDS011;66891;46.884;17.436;2023-04-06T05:24:16;316.30;;;86.40;;
77591;SDS011;66891;46.884;17.436;2023-04-06T05:26:43;217.60;;;61.97;;
77591;SDS011;66891;46.884;17.436;2023-04-06T05:29:10;150.55;;;50.95;;
77591;SDS011;66891;46.884;17.436;2023-04-06T05:31:37;63.80;;;23.88;;
77591;SDS011;66891;46.884;17.436;2023-04-06T05:34:04;43.10;;;17.70;;
77591;SDS011;66891;46.884;17.436;2023-04-06T05:36:31;55.97;;;24.38;;
77591;SDS011;66891;46.884;17.436;2023-04-06T05:38:59;100.03;;;31.07;;
77591;SDS011;66891;46.884;17.436;2023-04-06T05:41:27;174.15;;;47.42;;
77591;SDS011;66891;46.884;17.436;2023-04-06T05:43:54;376.45;;;98.75;;
77591;SDS011;66891;46.884;17.436;2023-04-06T05:46:22;178.98;;;51.03;;
77591;SDS011;66891;46.884;17.436;2023-04-06T05:48:51;137.13;;;43.15;;
77591;SDS011;66891;46.884;17.436;2023-04-06T05:51:17;107.90;;;34.22;;
77591;SDS011;66891;46.884;17.436;2023-04-06T05:53:44;88.43;;;30.80;;
77591;SDS011;66891;46.884;17.436;2023-04-06T05:56:12;49.45;;;17.17;;
77591;SDS011;66891;46.884;17.436;2023-04-06T05:58:41;51.30;;;18.70;;
77591;SDS011;66891;46.884;17.436;2023-04-06T06:01:08;49.45;;;18.77;;
77591;SDS011;66891;46.884;17.436;2023-04-06T06:03:36;19.10;;;7.75;;
77591;SDS011;66891;46.884;17.436;2023-04-06T06:06:04;12.45;;;4.88;;
77591;SDS011;66891;46.884;17.436;2023-04-06T06:08:31;14.65;;;6.35;;
77591;SDS011;66891;46.884;17.436;2023-04-06T06:10:58;13.88;;;5.20;;
77591;SDS011;66891;46.884;17.436;2023-04-06T06:13:25;13.85;;;5.43;;
77591;SDS011;66891;46.884;17.436;2023-04-06T06:15:53;12.57;;;5.13;;
77591;SDS011;66891;46.884;17.436;2023-04-06T06:18:21;20.83;;;8.60;;
77591;SDS011;66891;46.884;17.436;2023-04-06T06:20:48;13.68;;;5.15;;
77591;SDS011;66891;46.884;17.436;2023-04-06T06:23:15;14.15;;;4.35;;
77591;SDS011;66891;46.884;17.436;2023-04-06T06:25:42;11.82;;;4.70;;
77591;SDS011;66891;46.884;17.436;2023-04-06T06:28:09;11.40;;;4.75;;
77591;SDS011;66891;46.884;17.436;2023-04-06T06:30:36;11.55;;;4.35;;
77591;SDS011;66891;46.884;17.436;2023-04-06T06:33:05;9.73;;;3.60;;
77591;SDS011;66891;46.884;17.436;2023-04-06T06:35:32;16.50;;;6.55;;
77591;SDS011;66891;46.884;17.436;2023-04-06T06:37:59;12.70;;;4.50;;
77591;SDS011;66891;46.884;17.436;2023-04-06T06:40:27;13.55;;;4.38;;
77591;SDS011;66891;46.884;17.436;2023-04-06T06:42:54;11.50;;;4.47;;
77591;SDS011;66891;46.884;17.436;2023-04-06T06:45:21;15.35;;;4.70;;
77591;SDS011;66891;46.884;17.436;2023-04-06T06:47:48;14.02;;;4.40;;
77591;SDS011;66891;46.884;17.436;2023-04-06T06:50:20;12.00;;;4.70;;
77591;SDS011;66891;46.884;17.436;2023-04-06T06:52:47;11.23;;;4.45;;
77591;SDS011;66891;46.884;17.436;2023-04-06T06:55:14;14.50;;;4.53;;
77591;SDS011;66891;46.884;17.436;2023-04-06T06:57:41;14.75;;;5.20;;
77591;SDS011;66891;46.884;17.436;2023-04-06T07:00:09;13.23;;;4.97;;
77591;SDS011;66891;46.884;17.436;2023-04-06T07:02:39;11.02;;;4.07;;
77591;SDS011;66891;46.884;17.436;2023-04-06T07:05:06;12.07;;;4.63;;
77591;SDS011;66891;46.884;17.436;2023-04-06T07:07:54;12.13;;;4.35;;
77591;SDS011;66891;46.884;17.436;2023-04-06T07:10:22;9.77;;;3.35;;
77591;SDS011;66891;46.884;17.436;2023-04-06T07:12:49;11.52;;;4.32;;
77591;SDS011;66891;46.884;17.436;2023-04-06T07:15:16;10.32;;;3.65;;
77591;SDS011;66891;46.884;17.436;2023-04-06T07:17:43;12.13;;;4.78;;
77591;SDS011;66891;46.884;17.436;2023-04-06T07:20:12;11.43;;;4.27;;
77591;SDS011;66891;46.884;17.436;2023-04-06T07:22:39;12.50;;;4.75;;
77591;SDS011;66891;46.884;17.436;2023-04-06T07:25:08;11.00;;;3.85;;
77591;SDS011;66891;46.884;17.436;2023-04-06T07:27:35;10.93;;;4.47;;
77591;SDS011;66891;46.884;17.436;2023-04-06T07:30:03;10.05;;;3.90;;
77591;SDS011;66891;46.884;17.436;2023-04-06T07:32:30;15.60;;;5.27;;
77591;SDS011;66891;46.884;17.436;2023-04-06T07:34:57;11.55;;;4.13;;
77591;SDS011;66891;46.884;17.436;2023-04-06T07:37:24;13.05;;;4.78;;
77591;SDS011;66891;46.884;17.436;2023-04-06T07:39:53;13.23;;;4.78;;
77591;SDS011;66891;46.884;17.436;2023-04-06T07:42:22;9.13;;;3.55;;
77591;SDS011;66891;46.884;17.436;2023-04-06T07:44:49;8.07;;;2.87;;
77591;SDS011;66891;46.884;17.436;2023-04-06T07:47:16;8.85;;;2.83;;
77591;SDS011;66891;46.884;17.436;2023-04-06T07:49:43;8.77;;;2.20;;
77591;SDS011;66891;46.884;17.436;2023-04-06T07:52:10;12.77;;;4.38;;
77591;SDS011;66891;46.884;17.436;2023-04-06T07:54:37;11.15;;;4.93;;
77591;SDS011;66891;46.884;17.436;2023-04-06T07:57:04;8.97;;;2.43;;
77591;SDS011;66891;46.884;17.436;2023-04-06T07:59:33;10.07;;;3.47;;
77591;SDS011;66891;46.884;17.436;2023-04-06T08:02:00;12.75;;;3.20;;
77591;SDS011;66891;46.884;17.436;2023-04-06T08:04:28;9.38;;;2.63;;
77591;SDS011;66891;46.884;17.436;2023-04-06T08:06:55;10.00;;;3.28;;
77591;SDS011;66891;46.884;17.436;2023-04-06T08:09:22;9.17;;;4.17;;
77591;SDS011;66891;46.884;17.436;2023-04-06T08:11:49;10.50;;;3.08;;
77591;SDS011;66891;46.884;17.436;2023-04-06T08:14:16;7.60;;;2.33;;
77591;SDS011;66891;46.884;17.436;2023-04-06T08:16:44;8.45;;;2.63;;
77591;SDS011;66891;46.884;17.436;2023-04-06T08:19:11;8.50;;;3.50;;
77591;SDS011;66891;46.884;17.436;2023-04-06T08:21:38;8.83;;;3.10;;
77591;SDS011;66891;46.884;17.436;2023-04-06T08:24:06;7.03;;;2.17;;
77591;SDS011;66891;46.884;17.436;2023-04-06T08:26:34;10.07;;;2.83;;
77591;SDS011;66891;46.884;17.436;2023-04-06T08:29:01;12.20;;;4.40;;
77591;SDS011;66891;46.884;17.436;2023-04-06T08:31:28;9.38;;;3.38;;
77591;SDS011;66891;46.884;17.436;2023-04-06T08:33:56;6.03;;;1.67;;
77591;SDS011;66891;46.884;17.436;2023-04-06T08:36:23;9.30;;;3.05;;
77591;SDS011;66891;46.884;17.436;2023-04-06T08:38:51;8.82;;;3.30;;
77591;SDS011;66891;46.884;17.436;2023-04-06T08:41:19;10.32;;;3.10;;
77591;SDS011;66891;46.884;17.436;2023-04-06T08:43:46;9.85;;;3.38;;
77591;SDS011;66891;46.884;17.436;2023-04-06T08:46:13;8.80;;;2.43;;
77591;SDS011;66891;46.884;17.436;2023-04-06T08:48:41;10.85;;;4.18;;
77591;SDS011;66891;46.884;17.436;2023-04-06T08:51:10;11.68;;;4.13;;
77591;SDS011;66891;46.884;17.436;2023-04-06T08:53:37;7.40;;;2.20;;
77591;SDS011;66891;46.884;17.436;2023-04-06T08:56:04;10.63;;;3.22;;
77591;SDS011;66891;46.884;17.436;2023-04-06T08:58:33;7.77;;;2.57;;
77591;SDS011;66891;46.884;17.436;2023-04-06T09:01:06;6.97;;;2.40;;
77591;SDS011;66891;46.884;17.436;2023-04-06T09:03:35;10.80;;;3.70;;
77591;SDS011;66891;46.884;17.436;2023-04-06T09:06:03;9.45;;;1.75;;
77591;SDS011;66891;46.884;17.436;2023-04-06T09:08:32;10.15;;;2.58;;
77591;SDS011;66891;46.884;17.436;2023-04-06T09:11:00;10.20;;;3.23;;
77591;SDS011;66891;46.884;17.436;2023-04-06T09:13:27;10.10;;;3.03;;
77591;SDS011;66891;46.884;17.436;2023-04-06T09:16:01;9.65;;;3.28;;
77591;SDS011;66891;46.884;17.436;2023-04-06T09:18:28;12.05;;;1.98;;
77591;SDS011;66891;46.884;17.436;2023-04-06T09:21:00;10.38;;;3.03;;
77591;SDS011;66891;46.884;17.436;2023-04-06T09:23:27;8.10;;;2.33;;
77591;SDS011;66891;46.884;17.436;2023-04-06T09:26:06;8.13;;;2.38;;
77591;SDS011;66891;46.884;17.436;2023-04-06T09:28:43;6.78;;;2.08;;
77591;SDS011;66891;46.884;17.436;2023-04-06T09:31:10;7.07;;;1.92;;
77591;SDS011;66891;46.884;17.436;2023-04-06T09:33:37;7.32;;;2.17;;
77591;SDS011;66891;46.884;17.436;2023-04-06T09:36:06;8.70;;;2.73;;
77591;SDS011;66891;46.884;17.436;2023-04-06T09:38:33;8.15;;;2.67;;
77591;SDS011;66891;46.884;17.436;2023-04-06T09:41:00;8.25;;;2.00;;
77591;SDS011;66891;46.884;17.436;2023-04-06T09:43:28;12.00;;;3.00;;
77591;SDS011;66891;46.884;17.436;2023-04-06T09:45:56;10.32;;;3.85;;
77591;SDS011;66891;46.884;17.436;2023-04-06T09:48:23;8.67;;;3.00;;
77591;SDS011;66891;46.884;17.436;2023-04-06T09:50:57;6.43;;;1.60;;
77591;SDS011;66891;46.884;17.436;2023-04-06T09:53:26;9.70;;;2.80;;
77591;SDS011;66891;46.884;17.436;2023-04-06T09:55:54;7.60;;;2.08;;
77591;SDS011;66891;46.884;17.436;2023-04-06T09:58:24;9.00;;;2.83;;
77591;SDS011;66891;46.884;17.436;2023-04-06T10:00:56;7.43;;;2.20;;
77591;SDS011;66891;46.884;17.436;2023-04-06T10:03:26;5.20;;;1.17;;
77591;SDS011;66891;46.884;17.436;2023-04-06T10:06:00;7.78;;;1.65;;
77591;SDS011;66891;46.884;17.436;2023-04-06T10:08:32;5.55;;;1.25;;
77591;SDS011;66891;46.884;17.436;2023-04-06T10:11:00;6.03;;;1.50;;
77591;SDS011;66891;46.884;17.436;2023-04-06T10:13:27;9.70;;;2.87;;
77591;SDS011;66891;46.884;17.436;2023-04-06T10:15:55;5.93;;;1.85;;
77591;SDS011;66891;46.884;17.436;2023-04-06T10:18:22;5.32;;;0.93;;
77591;SDS011;66891;46.884;17.436;2023-04-06T10:20:50;6.65;;;2.00;;
77591;SDS011;66891;46.884;17.436;2023-04-06T10:23:19;6.70;;;1.38;;
77591;SDS011;66891;46.884;17.436;2023-04-06T10:25:53;7.13;;;2.00;;
77591;SDS011;66891;46.884;17.436;2023-04-06T10:28:23;6.55;;;1.52;;
77591;SDS011;66891;46.884;17.436;2023-04-06T10:30:57;5.68;;;1.48;;
77591;SDS011;66891;46.884;17.436;2023-04-06T10:33:25;7.25;;;1.27;;
77591;SDS011;66891;46.884;17.436;2023-04-06T10:35:52;6.57;;;1.85;;
77591;SDS011;66891;46.884;17.436;2023-04-06T10:38:19;6.77;;;2.10;;
77591;SDS011;66891;46.884;17.436;2023-04-06T10:40:50;5.45;;;1.20;;
77591;SDS011;66891;46.884;17.436;2023-04-06T10:43:18;6.55;;;1.48;;
77591;SDS011;66891;46.884;17.436;2023-04-06T10:45:45;7.60;;;1.73;;
77591;SDS011;66891;46.884;17.436;2023-04-06T10:48:22;6.18;;;1.52;;
77591;SDS011;66891;46.884;17.436;2023-04-06T10:50:51;6.77;;;1.90;;
77591;SDS011;66891;46.884;17.436;2023-04-06T10:53:21;8.75;;;1.27;;
77591;SDS011;66891;46.884;17.436;2023-04-06T10:55:49;7.00;;;1.33;;
77591;SDS011;66891;46.884;17.436;2023-04-06T10:58:16;7.97;;;2.00;;
77591;SDS011;66891;46.884;17.436;2023-04-06T11:00:44;6.88;;;1.95;;
77591;SDS011;66891;46.884;17.436;2023-04-06T11:03:13;7.60;;;2.23;;
77591;SDS011;66891;46.884;17.436;2023-04-06T11:05:44;8.05;;;2.00;;
77591;SDS011;66891;46.884;17.436;2023-04-06T11:08:24;11.07;;;2.90;;
77591;SDS011;66891;46.884;17.436;2023-04-06T11:10:51;8.57;;;2.53;;
77591;SDS011;66891;46.884;17.436;2023-04-06T11:13:18;6.97;;;2.28;;
77591;SDS011;66891;46.884;17.436;2023-04-06T11:15:45;6.77;;;1.73;;
77591;SDS011;66891;46.884;17.436;2023-04-06T11:18:12;6.65;;;2.25;;
77591;SDS011;66891;46.884;17.436;2023-04-06T11:20:39;7.80;;;2.35;;
77591;SDS011;66891;46.884;17.436;2023-04-06T11:23:08;6.32;;;1.92;;
77591;SDS011;66891;46.884;17.436;2023-04-06T11:25:35;7.97;;;2.53;;
77591;SDS011;66891;46.884;17.436;2023-04-06T11:28:02;9.50;;;2.67;;
77591;SDS011;66891;46.884;17.436;2023-04-06T11:30:29;8.25;;;3.03;;
77591;SDS011;66891;46.884;17.436;2023-04-06T11:33:00;8.90;;;2.50;;
77591;SDS011;66891;46.884;17.436;2023-04-06T11:35:27;7.03;;;1.98;;
77591;SDS011;66891;46.884;17.436;2023-04-06T11:37:57;6.63;;;2.03;;
77591;SDS011;66891;46.884;17.436;2023-04-06T11:40:27;9.63;;;2.90;;
77591;SDS011;66891;46.884;17.436;2023-04-06T11:42:56;8.60;;;3.10;;
77591;SDS011;66891;46.884;17.436;2023-04-06T11:45:23;9.20;;;2.70;;
77591;SDS011;66891;46.884;17.436;2023-04-06T11:47:55;8.07;;;2.75;;
77591;SDS011;66891;46.884;17.436;2023-04-06T11:50:22;8.38;;;2.58;;
77591;SDS011;66891;46.884;17.436;2023-04-06T11:52:57;7.67;;;2.27;;
77591;SDS011;66891;46.884;17.436;2023-04-06T11:55:24;9.20;;;2.90;;
77591;SDS011;66891;46.884;17.436;2023-04-06T11:57:53;7.55;;;1.92;;
77591;SDS011;66891;46.884;17.436;2023-04-06T12:00:20;6.00;;;1.50;;
77591;SDS011;66891;46.884;17.436;2023-04-06T12:02:48;6.82;;;1.60;;
77591;SDS011;66891;46.884;17.436;2023-04-06T12:05:15;8.90;;;2.70;;
77591;SDS011;66891;46.884;17.436;2023-04-06T12:07:42;5.70;;;1.45;;
77591;SDS011;66891;46.884;17.436;2023-04-06T12:10:09;7.75;;;2.13;;
77591;SDS011;66891;46.884;17.436;2023-04-06T12:12:36;7.25;;;1.92;;
77591;SDS011;66891;46.884;17.436;2023-04-06T12:15:06;6.95;;;2.05;;
77591;SDS011;66891;46.884;17.436;2023-04-06T12:17:33;7.87;;;2.17;;
77591;SDS011;66891;46.884;17.436;2023-04-06T12:20:00;6.53;;;1.77;;
77591;SDS011;66891;46.884;17.436;2023-04-06T12:22:39;6.72;;;1.90;;
77591;SDS011;66891;46.884;17.436;2023-04-06T12:25:07;7.63;;;1.85;;
77591;SDS011;66891;46.884;17.436;2023-04-06T12:27:34;6.55;;;1.70;;
77591;SDS011;66891;46.884;17.436;2023-04-06T12:30:06;8.10;;;2.47;;
77591;SDS011;66891;46.884;17.436;2023-04-06T12:32:35;7.68;;;1.90;;
77591;SDS011;66891;46.884;17.436;2023-04-06T12:35:02;5.93;;;1.27;;
77591;SDS011;66891;46.884;17.436;2023-04-06T12:37:29;7.70;;;2.85;;
77591;SDS011;66891;46.884;17.436;2023-04-06T12:39:56;8.02;;;1.85;;
77591;SDS011;66891;46.884;17.436;2023-04-06T12:42:23;7.80;;;2.00;;
77591;SDS011;66891;46.884;17.436;2023-04-06T12:44:50;8.05;;;1.58;;
77591;SDS011;66891;46.884;17.436;2023-04-06T12:47:19;7.22;;;1.63;;
77591;SDS011;66891;46.884;17.436;2023-04-06T12:49:46;8.43;;;2.35;;
77591;SDS011;66891;46.884;17.436;2023-04-06T12:52:13;6.13;;;1.35;;
77591;SDS011;66891;46.884;17.436;2023-04-06T12:54:41;7.80;;;1.80;;
77591;SDS011;66891;46.884;17.436;2023-04-06T12:57:08;7.90;;;1.98;;
77591;SDS011;66891;46.884;17.436;2023-04-06T12:59:35;11.43;;;2.80;;
77591;SDS011;66891;46.884;17.436;2023-04-06T13:02:03;6.00;;;1.45;;
77591;SDS011;66891;46.884;17.436;2023-04-06T13:04:33;7.03;;;1.90;;
77591;SDS011;66891;46.884;17.436;2023-04-06T13:07:00;9.23;;;2.03;;
77591;SDS011;66891;46.884;17.436;2023-04-06T13:09:27;7.68;;;1.88;;
77591;SDS011;66891;46.884;17.436;2023-04-06T13:11:54;5.72;;;1.20;;
77591;SDS011;66891;46.884;17.436;2023-04-06T13:14:22;6.30;;;2.05;;
77591;SDS011;66891;46.884;17.436;2023-04-06T13:16:49;9.40;;;3.00;;
77591;SDS011;66891;46.884;17.436;2023-04-06T13:19:16;9.63;;;2.23;;
77591;SDS011;66891;46.884;17.436;2023-04-06T13:21:46;7.60;;;1.95;;
77591;SDS011;66891;46.884;17.436;2023-04-06T13:24:13;7.90;;;2.33;;
77591;SDS011;66891;46.884;17.436;2023-04-06T13:26:43;8.73;;;2.70;;
77591;SDS011;66891;46.884;17.436;2023-04-06T13:29:10;8.70;;;2.65;;
77591;SDS011;66891;46.884;17.436;2023-04-06T13:31:37;10.07;;;3.70;;
77591;SDS011;66891;46.884;17.436;2023-04-06T13:34:05;13.00;;;5.68;;
77591;SDS011;66891;46.884;17.436;2023-04-06T13:36:32;8.95;;;2.35;;
77591;SDS011;66891;46.884;17.436;2023-04-06T13:39:01;7.55;;;2.08;;
77591;SDS011;66891;46.884;17.436;2023-04-06T13:41:28;6.22;;;2.00;;
77591;SDS011;66891;46.884;17.436;2023-04-06T13:43:55;7.77;;;1.93;;
77591;SDS011;66891;46.884;17.436;2023-04-06T13:46:24;8.10;;;2.47;;
77591;SDS011;66891;46.884;17.436;2023-04-06T13:48:51;8.65;;;2.47;;
77591;SDS011;66891;46.884;17.436;2023-04-06T13:51:18;7.03;;;1.70;;
77591;SDS011;66891;46.884;17.436;2023-04-06T13:53:46;6.13;;;2.20;;
77591;SDS011;66891;46.884;17.436;2023-04-06T13:56:14;6.80;;;1.83;;
77591;SDS011;66891;46.884;17.436;2023-04-06T13:58:41;7.55;;;2.60;;
77591;SDS011;66891;46.884;17.436;2023-04-06T14:01:09;6.35;;;2.10;;
77591;SDS011;66891;46.884;17.436;2023-04-06T14:03:37;6.75;;;1.85;;
77591;SDS011;66891;46.884;17.436;2023-04-06T14:06:10;7.82;;;2.42;;
77591;SDS011;66891;46.884;17.436;2023-04-06T14:08:55;8.07;;;2.60;;
77591;SDS011;66891;46.884;17.436;2023-04-06T14:11:25;9.82;;;2.78;;
77591;SDS011;66891;46.884;17.436;2023-04-06T14:13:53;6.32;;;1.40;;
77591;SDS011;66891;46.884;17.436;2023-04-06T14:16:23;5.20;;;1.15;;
77591;SDS011;66891;46.884;17.436;2023-04-06T14:18:50;5.80;;;1.65;;
77591;SDS011;66891;46.884;17.436;2023-04-06T14:21:19;5.33;;;1.40;;
77591;SDS011;66891;46.884;17.436;2023-04-06T14:23:46;6.10;;;1.77;;
77591;SDS011;66891;46.884;17.436;2023-04-06T14:26:13;6.18;;;1.90;;
77591;SDS011;66891;46.884;17.436;2023-04-06T14:28:42;7.95;;;2.50;;
77591;SDS011;66891;46.884;17.436;2023-04-06T14:31:10;8.57;;;2.55;;